Date,TemperatureHighF,TemperatureAvgF,TemperatureLowF,DewpointHighF,DewpointAvgF,DewpointLowF,HumidityHigh,HumidityAvg,HumidityLow,PressureMaxIn,PressureMinIn,WindSpeedMaxMPH,WindSpeedAvgMPH,GustSpeedMaxMPH,PrecipitationSumIn
2013-5-1,83.0,71.6,66.0,75.0,68.5,64.0,94,90,76,29.96,29.88,6,0,11,0.26
2013-5-2,72.0,69.6,66.0,70.0,67.7,64.0,95,94,88,29.94,29.79,3,0,5,0.74
2013-5-3,86.0,73.8,62.0,72.0,67.2,61.0,96,81,57,29.84,29.69,4,1,10,0.72
2013-5-4,84.0,74.2,65.0,72.0,67.2,63.0,95,80,64,29.81,29.69,10,2,16,2.75
2013-5-5,83.0,73.5,65.0,67.0,61.6,57.0,87,68,44,29.95,29.78,8,2,16,9.74
2013-5-6,82.0,68.4,54.0,68.0,60.6,52.0,94,78,59,30.00,29.93,9,1,10,0.00
2013-5-7,82.0,69.3,56.0,65.0,60.6,54.0,94,76,53,30.06,29.97,8,1,12,0.00
2013-5-8,85.0,69.7,55.0,66.0,59.9,53.0,95,74,45,30.12,30.04,5,0,9,0.00
2013-5-9,92.0,71.1,53.0,67.0,60.4,51.0,95,73,40,30.12,30.06,3,0,9,0.00
2013-5-10,93.0,75.7,62.0,74.0,65.1,-99.9,93,75,48,30.11,29.98,4,1,10,0.00
2013-5-11,92.0,78.2,66.0,75.0,70.7,64.0,94,79,56,30.04,29.98,6,1,10,0.00
2013-5-12,88.0,77.6,69.0,77.0,71.0,-99.9,95,83,66,30.04,29.91,6,1,13,0.00
2013-5-13,89.0,77.6,66.0,73.0,68.9,61.0,95,76,55,30.09,29.99,10,1,11,0.00
2013-5-14,87.0,75.1,62.0,64.0,58.4,54.0,84,58,37,30.16,30.07,5,1,10,0.00
2013-5-15,87.0,72.9,56.0,64.0,59.9,54.0,93,67,44,30.16,30.05,5,1,10,0.00
2013-5-16,87.0,69.4,61.0,66.0,41.1,-99.9,92,68,42,30.09,29.98,5,0,10,0.00
2013-5-17,92.0,76.6,62.0,69.0,59.2,-99.9,92,67,40,30.06,30.00,5,1,10,0.00
2013-5-18,92.0,76.6,63.0,77.0,69.2,61.0,94,79,51,30.08,30.00,7,1,10,0.24
2013-5-19,91.0,78.0,68.0,75.0,70.4,66.0,94,79,49,30.08,29.95,5,0,9,0.49
2013-5-20,92.0,76.9,70.0,77.0,71.2,68.0,95,84,53,30.05,29.95,7,0,14,1.46
2013-5-21,88.0,75.5,68.0,76.0,70.6,66.0,95,86,62,30.00,29.88,3,0,10,0.17
2013-5-22,90.0,78.1,67.0,76.0,70.7,65.0,95,80,59,29.94,29.86,5,1,11,0.04
2013-5-23,90.0,78.8,67.0,74.0,70.3,65.0,93,77,55,30.01,29.90,5,1,8,0.00
2013-5-24,95.0,80.3,69.0,76.0,70.5,65.0,93,74,43,30.06,29.95,4,1,11,0.00
2013-5-25,92.0,78.1,65.0,75.0,67.4,62.0,92,72,47,30.14,30.02,7,1,11,0.00
2013-5-26,88.0,77.5,66.0,69.0,66.2,62.0,88,69,49,30.15,30.06,5,1,10,0.00
2013-5-27,86.0,76.4,65.0,74.0,68.2,62.0,90,77,62,30.14,30.00,8,1,11,0.01
2013-5-28,86.0,76.8,72.0,76.0,71.6,69.0,90,84,65,30.09,30.01,7,1,14,0.17
2013-5-29,82.0,74.6,71.0,75.0,70.9,68.0,92,88,76,30.07,29.98,4,1,10,0.49
2013-5-30,87.0,76.7,70.0,77.0,71.8,67.0,92,85,70,30.03,29.94,5,1,12,0.27
2013-5-31,88.0,77.3,72.0,77.0,72.8,69.0,92,86,66,30.02,29.97,3,0,8,0.76